EREK1: Neosho River near Erie

                                SHEF ID:       EREK1     NEOSHO R NR ERIE, KS
STATION TYPE:

PRECIP STAGE RIV-FLOW BAT-LOAD
in ft cfs volt
Ccp-Rev Ccp-Rev Ccp-Rev Ccp-Rev
(America/Chicago)
03/07 00:00 ---- 15.46 5140 12.44
03/07 01:00 ---- 15.88 5730 12.42
03/07 02:00 ---- 16.34 6370 12.40
03/07 03:00 ---- 16.82 7030 12.37
03/07 04:00 ---- 17.30 7690 12.33
03/07 05:00 ---- 17.83 8420 12.29
03/07 06:00 ---- 18.28 9030 12.26
03/07 07:00 ---- 18.64 9520 12.23
03/07 08:00 ---- 19.01 10000 12.22
03/07 09:00 ---- 19.39 10500 12.54
03/07 10:00 ---- 19.63 10900 13.23
03/07 11:00 ---- 20.01 11400 13.44
03/07 12:00 ---- 20.28 11700 13.54
03/07 13:00 ---- 20.50 12000 13.55
03/07 14:00 ---- 20.72 12300 13.45
03/07 15:00 ---- 20.90 12600 13.46
03/07 16:00 ---- 21.08 12800 13.52
03/07 17:00 ---- 21.21 13000 13.42
03/07 18:00 ---- 21.34 13100 13.36
03/07 19:00 ---- 21.43 13300 13.09
03/07 20:00 ---- 21.50 13400 12.57
03/07 21:00 ---- 21.53 13400 12.46
03/07 22:00 ---- 21.59 13500 12.41
03/07 23:00 ---- 21.58 13500 12.37
Data processed at Sun 08Mar2026 05:23 GMT

NOTICE: If you are parsing this page

Please convert to using our Data API. Starting early 2026 we will be migrating to: https://water.usace.army.mil with modern pages rendered in JavaScript. When this migration completes you will no longer be able to scrape this page! CWMSDataAPI (CDA)

Timeseries IDs (TSIDs)

TSIDs used from left to right in the data table
ERIE.Precip-Inc.Total.1Hour.1Hour.Ccp-Rev
ERIE.Stage.Inst.1Hour.0.Ccp-Rev
ERIE.Flow.Inst.1Hour.0.Ccp-Rev
ERIE.Volt-Battery Load.Inst.1Hour.0.Ccp-Rev

                            

All information presented herein is the property of the government of the United States of America and may be revised or deleted at any time without prior notice. Dissemination of this information without the expressed written consent of the Public Affairs Office, Tulsa District U.S. Army Corps of Engineers is strictly prohibited. These data are gathered electronically and, as presented, have NOT undergone any form of quality control. These data are NOT guaranteed to be valid or correct.